sensor_id;sensor_type;location;lat;lon;timestamp;temperature;humidity
43049;DHT22;28673;44.412;11.918;2023-09-18T00:01:43;22.50;99.90
43049;DHT22;28673;44.412;11.918;2023-09-18T00:04:09;22.50;99.90
43049;DHT22;28673;44.412;11.918;2023-09-18T00:06:54;22.50;99.90
43049;DHT22;28673;44.412;11.918;2023-09-18T00:09:19;22.40;99.90
43049;DHT22;28673;44.412;11.918;2023-09-18T00:11:45;22.40;99.90
43049;DHT22;28673;44.412;11.918;2023-09-18T00:14:11;22.40;99.90
43049;DHT22;28673;44.412;11.918;2023-09-18T00:16:39;22.30;99.90
43049;DHT22;28673;44.412;11.918;2023-09-18T00:19:05;22.30;99.90
43049;DHT22;28673;44.412;11.918;2023-09-18T00:21:50;22.20;99.90
43049;DHT22;28673;44.412;11.918;2023-09-18T00:24:17;22.30;99.90
43049;DHT22;28673;44.412;11.918;2023-09-18T00:26:43;22.20;99.90
43049;DHT22;28673;44.412;11.918;2023-09-18T00:29:08;22.20;99.90
43049;DHT22;28673;44.412;11.918;2023-09-18T00:31:34;22.20;99.90
43049;DHT22;28673;44.412;11.918;2023-09-18T00:34:00;22.20;99.90
43049;DHT22;28673;44.412;11.918;2023-09-18T00:36:25;22.20;99.90
43049;DHT22;28673;44.412;11.918;2023-09-18T00:38:51;22.20;99.90
43049;DHT22;28673;44.412;11.918;2023-09-18T00:41:17;22.10;99.90
43049;DHT22;28673;44.412;11.918;2023-09-18T00:43:43;22.10;99.90
43049;DHT22;28673;44.412;11.918;2023-09-18T00:46:08;22.10;99.90
43049;DHT22;28673;44.412;11.918;2023-09-18T00:48:34;22.00;99.90
43049;DHT22;28673;44.412;11.918;2023-09-18T00:51:00;22.00;99.90
43049;DHT22;28673;44.412;11.918;2023-09-18T00:53:26;22.00;99.90
43049;DHT22;28673;44.412;11.918;2023-09-18T00:55:53;22.00;99.90
43049;DHT22;28673;44.412;11.918;2023-09-18T00:58:22;22.00;99.90
43049;DHT22;28673;44.412;11.918;2023-09-18T01:00:48;21.90;99.90
43049;DHT22;28673;44.412;11.918;2023-09-18T01:03:16;21.90;99.90
43049;DHT22;28673;44.412;11.918;2023-09-18T01:05:44;21.90;99.90
43049;DHT22;28673;44.412;11.918;2023-09-18T01:08:28;21.90;99.90
43049;DHT22;28673;44.412;11.918;2023-09-18T01:10:56;21.90;99.90
43049;DHT22;28673;44.412;11.918;2023-09-18T01:13:28;21.80;99.90
43049;DHT22;28673;44.412;11.918;2023-09-18T01:16:01;21.80;99.90
43049;DHT22;28673;44.412;11.918;2023-09-18T01:18:28;21.70;99.90
43049;DHT22;28673;44.412;11.918;2023-09-18T01:21:12;21.80;99.90
43049;DHT22;28673;44.412;11.918;2023-09-18T01:23:38;21.80;99.90
43049;DHT22;28673;44.412;11.918;2023-09-18T01:26:04;21.80;99.90
43049;DHT22;28673;44.412;11.918;2023-09-18T01:28:31;21.80;99.90
43049;DHT22;28673;44.412;11.918;2023-09-18T01:30:57;21.80;99.90
43049;DHT22;28673;44.412;11.918;2023-09-18T01:33:22;21.80;99.90
43049;DHT22;28673;44.412;11.918;2023-09-18T01:35:49;21.70;99.90
43049;DHT22;28673;44.412;11.918;2023-09-18T01:38:15;21.70;99.90
43049;DHT22;28673;44.412;11.918;2023-09-18T01:40:41;21.70;99.90
43049;DHT22;28673;44.412;11.918;2023-09-18T01:43:07;21.60;99.90
43049;DHT22;28673;44.412;11.918;2023-09-18T01:45:32;21.60;99.90
43049;DHT22;28673;44.412;11.918;2023-09-18T01:47:58;21.60;99.90
43049;DHT22;28673;44.412;11.918;2023-09-18T01:50:24;21.60;99.90
43049;DHT22;28673;44.412;11.918;2023-09-18T01:52:50;21.60;99.90
43049;DHT22;28673;44.412;11.918;2023-09-18T01:55:18;21.60;99.90
43049;DHT22;28673;44.412;11.918;2023-09-18T01:57:53;21.60;99.90
43049;DHT22;28673;44.412;11.918;2023-09-18T02:00:32;21.60;99.90
43049;DHT22;28673;44.412;11.918;2023-09-18T02:02:58;21.60;99.90
43049;DHT22;28673;44.412;11.918;2023-09-18T02:05:23;21.60;99.90
43049;DHT22;28673;44.412;11.918;2023-09-18T02:07:49;21.50;99.90
43049;DHT22;28673;44.412;11.918;2023-09-18T02:10:16;21.50;99.90
43049;DHT22;28673;44.412;11.918;2023-09-18T02:12:42;21.50;99.90
43049;DHT22;28673;44.412;11.918;2023-09-18T02:15:07;21.40;99.90
43049;DHT22;28673;44.412;11.918;2023-09-18T02:17:35;21.40;99.90
43049;DHT22;28673;44.412;11.918;2023-09-18T02:22:45;21.40;99.90
43049;DHT22;28673;44.412;11.918;2023-09-18T02:25:12;21.50;99.90
43049;DHT22;28673;44.412;11.918;2023-09-18T02:27:38;21.50;99.90
43049;DHT22;28673;44.412;11.918;2023-09-18T02:30:22;21.40;99.90
43049;DHT22;28673;44.412;11.918;2023-09-18T02:32:48;21.40;99.90
43049;DHT22;28673;44.412;11.918;2023-09-18T02:35:34;21.40;99.90
43049;DHT22;28673;44.412;11.918;2023-09-18T02:38:00;21.40;99.90
43049;DHT22;28673;44.412;11.918;2023-09-18T02:40:28;21.40;99.90
43049;DHT22;28673;44.412;11.918;2023-09-18T02:42:53;21.30;99.90
43049;DHT22;28673;44.412;11.918;2023-09-18T02:45:19;21.30;99.90
43049;DHT22;28673;44.412;11.918;2023-09-18T02:47:45;21.30;99.90
43049;DHT22;28673;44.412;11.918;2023-09-18T02:52:55;21.30;99.90
43049;DHT22;28673;44.412;11.918;2023-09-18T02:55:21;21.30;99.90
43049;DHT22;28673;44.412;11.918;2023-09-18T02:57:47;21.30;99.90
43049;DHT22;28673;44.412;11.918;2023-09-18T03:00:13;21.30;99.90
43049;DHT22;28673;44.412;11.918;2023-09-18T03:02:39;21.30;99.90
43049;DHT22;28673;44.412;11.918;2023-09-18T03:05:05;21.30;99.90
43049;DHT22;28673;44.412;11.918;2023-09-18T03:07:50;21.30;99.90
43049;DHT22;28673;44.412;11.918;2023-09-18T03:10:16;21.20;99.90
43049;DHT22;28673;44.412;11.918;2023-09-18T03:12:47;21.20;99.90
43049;DHT22;28673;44.412;11.918;2023-09-18T03:15:13;21.20;99.90
43049;DHT22;28673;44.412;11.918;2023-09-18T03:17:38;21.20;99.90
43049;DHT22;28673;44.412;11.918;2023-09-18T03:20:08;21.20;99.90
43049;DHT22;28673;44.412;11.918;2023-09-18T03:22:53;21.20;99.90
43049;DHT22;28673;44.412;11.918;2023-09-18T03:25:19;21.10;99.90
43049;DHT22;28673;44.412;11.918;2023-09-18T03:27:45;21.20;99.90
43049;DHT22;28673;44.412;11.918;2023-09-18T03:30:11;21.20;99.90
43049;DHT22;28673;44.412;11.918;2023-09-18T03:32:41;21.20;99.90
43049;DHT22;28673;44.412;11.918;2023-09-18T03:35:07;21.20;99.90
43049;DHT22;28673;44.412;11.918;2023-09-18T03:37:35;21.20;99.90
43049;DHT22;28673;44.412;11.918;2023-09-18T03:40:00;21.10;99.90
43049;DHT22;28673;44.412;11.918;2023-09-18T03:42:28;21.10;99.90
43049;DHT22;28673;44.412;11.918;2023-09-18T03:44:54;21.00;99.90
43049;DHT22;28673;44.412;11.918;2023-09-18T03:47:20;20.90;99.90
43049;DHT22;28673;44.412;11.918;2023-09-18T03:49:46;20.80;99.90
43049;DHT22;28673;44.412;11.918;2023-09-18T03:52:12;20.80;99.90
43049;DHT22;28673;44.412;11.918;2023-09-18T03:54:38;20.80;99.90
43049;DHT22;28673;44.412;11.918;2023-09-18T03:57:22;20.80;99.90
43049;DHT22;28673;44.412;11.918;2023-09-18T03:59:48;20.70;99.90
43049;DHT22;28673;44.412;11.918;2023-09-18T04:02:13;20.70;99.90
43049;DHT22;28673;44.412;11.918;2023-09-18T04:04:39;20.70;99.90
43049;DHT22;28673;44.412;11.918;2023-09-18T04:07:05;20.70;99.90
43049;DHT22;28673;44.412;11.918;2023-09-18T04:09:31;20.70;99.90
43049;DHT22;28673;44.412;11.918;2023-09-18T04:11:57;20.70;99.90
43049;DHT22;28673;44.412;11.918;2023-09-18T04:14:23;20.70;99.90
43049;DHT22;28673;44.412;11.918;2023-09-18T04:16:49;20.70;99.90
43049;DHT22;28673;44.412;11.918;2023-09-18T04:19:15;20.80;99.90
43049;DHT22;28673;44.412;11.918;2023-09-18T04:21:41;20.80;99.90
43049;DHT22;28673;44.412;11.918;2023-09-18T04:24:07;20.80;99.90
43049;DHT22;28673;44.412;11.918;2023-09-18T04:29:17;20.80;99.90
43049;DHT22;28673;44.412;11.918;2023-09-18T04:31:43;20.80;99.90
43049;DHT22;28673;44.412;11.918;2023-09-18T04:34:09;20.90;99.90
43049;DHT22;28673;44.412;11.918;2023-09-18T04:36:36;20.90;99.90
43049;DHT22;28673;44.412;11.918;2023-09-18T04:39:03;20.80;99.90
43049;DHT22;28673;44.412;11.918;2023-09-18T04:41:48;20.80;99.90
43049;DHT22;28673;44.412;11.918;2023-09-18T04:44:14;20.80;99.90
43049;DHT22;28673;44.412;11.918;2023-09-18T04:46:40;20.80;99.90
43049;DHT22;28673;44.412;11.918;2023-09-18T04:51:55;20.90;99.90
43049;DHT22;28673;44.412;11.918;2023-09-18T04:57:06;20.90;99.90
43049;DHT22;28673;44.412;11.918;2023-09-18T04:59:34;21.00;99.90
43049;DHT22;28673;44.412;11.918;2023-09-18T05:02:00;21.00;99.90
43049;DHT22;28673;44.412;11.918;2023-09-18T05:04:26;21.00;99.90
43049;DHT22;28673;44.412;11.918;2023-09-18T05:06:54;21.00;99.90
43049;DHT22;28673;44.412;11.918;2023-09-18T05:09:21;21.00;99.90
43049;DHT22;28673;44.412;11.918;2023-09-18T05:11:50;21.00;99.90
43049;DHT22;28673;44.412;11.918;2023-09-18T05:14:19;21.00;99.90
43049;DHT22;28673;44.412;11.918;2023-09-18T05:16:45;21.00;99.90
43049;DHT22;28673;44.412;11.918;2023-09-18T05:19:13;21.00;99.90
43049;DHT22;28673;44.412;11.918;2023-09-18T05:21:39;21.00;99.90
43049;DHT22;28673;44.412;11.918;2023-09-18T05:24:05;21.10;99.90
43049;DHT22;28673;44.412;11.918;2023-09-18T05:26:32;21.10;99.90
43049;DHT22;28673;44.412;11.918;2023-09-18T05:28:59;21.10;99.90
43049;DHT22;28673;44.412;11.918;2023-09-18T05:34:13;21.10;99.90
43049;DHT22;28673;44.412;11.918;2023-09-18T05:36:42;21.10;99.90
43049;DHT22;28673;44.412;11.918;2023-09-18T05:39:13;21.10;99.90
43049;DHT22;28673;44.412;11.918;2023-09-18T05:41:45;21.10;99.90
43049;DHT22;28673;44.412;11.918;2023-09-18T05:44:11;21.10;99.90
43049;DHT22;28673;44.412;11.918;2023-09-18T05:46:42;21.10;99.90
43049;DHT22;28673;44.412;11.918;2023-09-18T05:49:08;21.20;99.90
43049;DHT22;28673;44.412;11.918;2023-09-18T05:51:37;21.20;99.90
43049;DHT22;28673;44.412;11.918;2023-09-18T05:54:12;21.30;99.90
43049;DHT22;28673;44.412;11.918;2023-09-18T05:59:37;21.40;99.90
43049;DHT22;28673;44.412;11.918;2023-09-18T06:02:13;21.40;99.90
43049;DHT22;28673;44.412;11.918;2023-09-18T06:04:38;21.40;99.90
43049;DHT22;28673;44.412;11.918;2023-09-18T06:07:04;21.50;99.90
43049;DHT22;28673;44.412;11.918;2023-09-18T06:09:48;21.50;99.90
43049;DHT22;28673;44.412;11.918;2023-09-18T06:12:33;21.60;99.90
43049;DHT22;28673;44.412;11.918;2023-09-18T06:14:58;21.60;99.90
43049;DHT22;28673;44.412;11.918;2023-09-18T06:17:24;21.60;99.90
43049;DHT22;28673;44.412;11.918;2023-09-18T06:19:50;21.60;99.90
43049;DHT22;28673;44.412;11.918;2023-09-18T06:22:16;21.70;99.90
43049;DHT22;28673;44.412;11.918;2023-09-18T06:24:42;21.70;99.90
43049;DHT22;28673;44.412;11.918;2023-09-18T06:27:08;21.70;99.90
43049;DHT22;28673;44.412;11.918;2023-09-18T06:29:33;21.70;99.90
43049;DHT22;28673;44.412;11.918;2023-09-18T06:32:00;21.80;99.90
43049;DHT22;28673;44.412;11.918;2023-09-18T06:34:26;21.80;99.90
43049;DHT22;28673;44.412;11.918;2023-09-18T06:36:52;21.90;99.90
43049;DHT22;28673;44.412;11.918;2023-09-18T06:39:17;21.90;99.90
43049;DHT22;28673;44.412;11.918;2023-09-18T06:41:43;21.90;99.90
43049;DHT22;28673;44.412;11.918;2023-09-18T06:44:11;22.00;99.90
43049;DHT22;28673;44.412;11.918;2023-09-18T06:46:38;22.10;99.90
43049;DHT22;28673;44.412;11.918;2023-09-18T06:49:05;22.10;99.90
43049;DHT22;28673;44.412;11.918;2023-09-18T06:51:30;22.20;99.90
43049;DHT22;28673;44.412;11.918;2023-09-18T06:54:15;22.30;99.90
43049;DHT22;28673;44.412;11.918;2023-09-18T06:56:40;22.30;99.90
43049;DHT22;28673;44.412;11.918;2023-09-18T06:59:07;22.40;99.90
43049;DHT22;28673;44.412;11.918;2023-09-18T07:01:32;22.50;99.90
43049;DHT22;28673;44.412;11.918;2023-09-18T07:06:43;22.70;99.90
43049;DHT22;28673;44.412;11.918;2023-09-18T07:09:09;22.80;99.90
43049;DHT22;28673;44.412;11.918;2023-09-18T07:11:37;23.00;99.90
43049;DHT22;28673;44.412;11.918;2023-09-18T07:14:03;23.10;99.90
43049;DHT22;28673;44.412;11.918;2023-09-18T07:16:32;23.30;99.90
43049;DHT22;28673;44.412;11.918;2023-09-18T07:19:16;23.40;99.90
43049;DHT22;28673;44.412;11.918;2023-09-18T07:21:42;23.50;99.90
43049;DHT22;28673;44.412;11.918;2023-09-18T07:24:08;23.70;99.90
43049;DHT22;28673;44.412;11.918;2023-09-18T07:26:35;23.80;99.90
43049;DHT22;28673;44.412;11.918;2023-09-18T07:29:01;23.90;99.90
43049;DHT22;28673;44.412;11.918;2023-09-18T07:31:27;24.00;99.90
43049;DHT22;28673;44.412;11.918;2023-09-18T07:33:52;24.10;99.90
43049;DHT22;28673;44.412;11.918;2023-09-18T07:36:37;24.20;99.90
43049;DHT22;28673;44.412;11.918;2023-09-18T07:39:03;24.20;99.90
43049;DHT22;28673;44.412;11.918;2023-09-18T07:41:30;24.40;99.90
43049;DHT22;28673;44.412;11.918;2023-09-18T07:43:56;24.50;99.90
43049;DHT22;28673;44.412;11.918;2023-09-18T07:46:23;24.60;99.90
43049;DHT22;28673;44.412;11.918;2023-09-18T07:48:49;24.70;99.90
43049;DHT22;28673;44.412;11.918;2023-09-18T07:51:15;24.80;99.90
43049;DHT22;28673;44.412;11.918;2023-09-18T07:53:42;24.90;99.90
43049;DHT22;28673;44.412;11.918;2023-09-18T07:56:07;25.00;99.90
43049;DHT22;28673;44.412;11.918;2023-09-18T07:58:34;25.20;99.90
43049;DHT22;28673;44.412;11.918;2023-09-18T08:01:06;25.30;99.90
43049;DHT22;28673;44.412;11.918;2023-09-18T08:03:32;25.40;99.90
43049;DHT22;28673;44.412;11.918;2023-09-18T08:06:16;25.50;99.90
43049;DHT22;28673;44.412;11.918;2023-09-18T08:08:44;25.60;99.90
43049;DHT22;28673;44.412;11.918;2023-09-18T08:11:10;25.70;99.90
43049;DHT22;28673;44.412;11.918;2023-09-18T08:13:36;25.80;99.90
43049;DHT22;28673;44.412;11.918;2023-09-18T08:16:05;25.90;99.90
43049;DHT22;28673;44.412;11.918;2023-09-18T08:18:31;26.00;99.90
43049;DHT22;28673;44.412;11.918;2023-09-18T08:20:57;26.10;99.90
43049;DHT22;28673;44.412;11.918;2023-09-18T08:23:26;26.20;99.90
43049;DHT22;28673;44.412;11.918;2023-09-18T08:25:52;26.30;99.90
43049;DHT22;28673;44.412;11.918;2023-09-18T08:31:09;26.40;99.90
43049;DHT22;28673;44.412;11.918;2023-09-18T08:33:35;26.50;99.90
43049;DHT22;28673;44.412;11.918;2023-09-18T08:36:04;26.60;99.90
43049;DHT22;28673;44.412;11.918;2023-09-18T08:38:30;26.70;99.90
43049;DHT22;28673;44.412;11.918;2023-09-18T08:41:16;26.90;99.90
43049;DHT22;28673;44.412;11.918;2023-09-18T08:43:43;27.00;99.90
43049;DHT22;28673;44.412;11.918;2023-09-18T08:46:09;26.90;99.90
43049;DHT22;28673;44.412;11.918;2023-09-18T08:48:54;27.00;99.90
43049;DHT22;28673;44.412;11.918;2023-09-18T08:51:20;27.10;99.90
43049;DHT22;28673;44.412;11.918;2023-09-18T08:53:46;27.20;99.90
43049;DHT22;28673;44.412;11.918;2023-09-18T08:56:12;27.30;99.90
43049;DHT22;28673;44.412;11.918;2023-09-18T08:58:39;27.40;99.90
43049;DHT22;28673;44.412;11.918;2023-09-18T09:04:08;27.50;99.90
43049;DHT22;28673;44.412;11.918;2023-09-18T09:06:34;27.50;99.90
43049;DHT22;28673;44.412;11.918;2023-09-18T09:09:02;27.40;99.90
43049;DHT22;28673;44.412;11.918;2023-09-18T09:11:28;27.40;99.90
43049;DHT22;28673;44.412;11.918;2023-09-18T09:14:27;27.40;99.90
43049;DHT22;28673;44.412;11.918;2023-09-18T09:16:54;27.30;99.90
43049;DHT22;28673;44.412;11.918;2023-09-18T09:19:41;27.40;99.90
43049;DHT22;28673;44.412;11.918;2023-09-18T09:22:08;27.30;99.90
43049;DHT22;28673;44.412;11.918;2023-09-18T09:24:53;27.30;99.90
43049;DHT22;28673;44.412;11.918;2023-09-18T09:27:18;27.30;99.90
43049;DHT22;28673;44.412;11.918;2023-09-18T09:29:51;27.30;99.90
43049;DHT22;28673;44.412;11.918;2023-09-18T09:32:22;27.30;99.90
43049;DHT22;28673;44.412;11.918;2023-09-18T09:34:48;27.20;99.90
43049;DHT22;28673;44.412;11.918;2023-09-18T09:37:14;27.20;99.90
43049;DHT22;28673;44.412;11.918;2023-09-18T09:39:46;27.20;99.90
43049;DHT22;28673;44.412;11.918;2023-09-18T09:42:15;27.30;99.90
43049;DHT22;28673;44.412;11.918;2023-09-18T09:44:44;27.30;99.90
43049;DHT22;28673;44.412;11.918;2023-09-18T09:47:10;27.40;99.90
43049;DHT22;28673;44.412;11.918;2023-09-18T09:49:47;27.40;99.90
43049;DHT22;28673;44.412;11.918;2023-09-18T09:52:19;27.50;99.90
43049;DHT22;28673;44.412;11.918;2023-09-18T09:54:47;27.40;99.90
43049;DHT22;28673;44.412;11.918;2023-09-18T09:57:31;27.50;99.90
43049;DHT22;28673;44.412;11.918;2023-09-18T10:03:16;27.60;99.90
43049;DHT22;28673;44.412;11.918;2023-09-18T10:08:26;27.80;99.90
43049;DHT22;28673;44.412;11.918;2023-09-18T10:10:54;27.80;99.90
43049;DHT22;28673;44.412;11.918;2023-09-18T10:13:50;27.80;99.90
43049;DHT22;28673;44.412;11.918;2023-09-18T10:16:19;27.80;99.90
43049;DHT22;28673;44.412;11.918;2023-09-18T10:21:39;27.90;99.90
43049;DHT22;28673;44.412;11.918;2023-09-18T10:26:55;28.00;99.90
43049;DHT22;28673;44.412;11.918;2023-09-18T10:29:22;28.00;99.90
43049;DHT22;28673;44.412;11.918;2023-09-18T10:31:49;28.10;99.90
43049;DHT22;28673;44.412;11.918;2023-09-18T10:34:15;28.20;99.50
43049;DHT22;28673;44.412;11.918;2023-09-18T10:36:42;28.20;99.70
43049;DHT22;28673;44.412;11.918;2023-09-18T10:39:09;28.40;99.50
43049;DHT22;28673;44.412;11.918;2023-09-18T10:41:38;28.50;99.30
43049;DHT22;28673;44.412;11.918;2023-09-18T10:47:26;28.60;98.70
43049;DHT22;28673;44.412;11.918;2023-09-18T10:49:53;28.70;98.50
43049;DHT22;28673;44.412;11.918;2023-09-18T10:52:42;28.70;98.20
43049;DHT22;28673;44.412;11.918;2023-09-18T10:55:12;28.70;98.40
43049;DHT22;28673;44.412;11.918;2023-09-18T10:57:55;28.70;98.10
43049;DHT22;28673;44.412;11.918;2023-09-18T11:00:24;28.70;98.40
43049;DHT22;28673;44.412;11.918;2023-09-18T11:03:09;28.70;98.40
43049;DHT22;28673;44.412;11.918;2023-09-18T11:05:36;28.60;98.50
43049;DHT22;28673;44.412;11.918;2023-09-18T11:13:43;28.50;99.00
43049;DHT22;28673;44.412;11.918;2023-09-18T11:18:53;28.40;98.90
43049;DHT22;28673;44.412;11.918;2023-09-18T11:21:28;28.40;98.60
43049;DHT22;28673;44.412;11.918;2023-09-18T11:24:07;28.30;98.80
43049;DHT22;28673;44.412;11.918;2023-09-18T11:26:37;28.40;98.70
43049;DHT22;28673;44.412;11.918;2023-09-18T11:29:27;28.30;98.60
43049;DHT22;28673;44.412;11.918;2023-09-18T11:31:55;28.40;98.50
43049;DHT22;28673;44.412;11.918;2023-09-18T11:34:21;28.40;98.30
43049;DHT22;28673;44.412;11.918;2023-09-18T11:36:47;28.50;98.40
43049;DHT22;28673;44.412;11.918;2023-09-18T11:39:13;28.50;98.10
43049;DHT22;28673;44.412;11.918;2023-09-18T11:44:42;28.40;97.90
43049;DHT22;28673;44.412;11.918;2023-09-18T11:47:15;28.40;98.10
43049;DHT22;28673;44.412;11.918;2023-09-18T11:49:48;28.40;97.70
43049;DHT22;28673;44.412;11.918;2023-09-18T11:52:18;28.40;97.80
43049;DHT22;28673;44.412;11.918;2023-09-18T11:54:45;28.40;97.70
43049;DHT22;28673;44.412;11.918;2023-09-18T11:57:12;28.40;97.70
43049;DHT22;28673;44.412;11.918;2023-09-18T11:59:42;28.50;97.70
43049;DHT22;28673;44.412;11.918;2023-09-18T12:02:31;28.50;97.80
43049;DHT22;28673;44.412;11.918;2023-09-18T12:05:10;28.50;97.50
43049;DHT22;28673;44.412;11.918;2023-09-18T12:07:38;28.50;97.70
43049;DHT22;28673;44.412;11.918;2023-09-18T12:10:05;28.40;97.10
43049;DHT22;28673;44.412;11.918;2023-09-18T12:12:31;28.40;97.60
43049;DHT22;28673;44.412;11.918;2023-09-18T12:15:18;28.30;97.70
43049;DHT22;28673;44.412;11.918;2023-09-18T12:17:48;28.30;97.70
43049;DHT22;28673;44.412;11.918;2023-09-18T12:20:21;28.20;97.80
43049;DHT22;28673;44.412;11.918;2023-09-18T12:22:47;28.20;98.00
43049;DHT22;28673;44.412;11.918;2023-09-18T12:25:14;28.20;97.80
43049;DHT22;28673;44.412;11.918;2023-09-18T12:27:41;28.10;97.10
43049;DHT22;28673;44.412;11.918;2023-09-18T12:30:07;28.10;97.20
43049;DHT22;28673;44.412;11.918;2023-09-18T12:32:35;28.00;97.30
43049;DHT22;28673;44.412;11.918;2023-09-18T12:35:02;28.00;97.40
43049;DHT22;28673;44.412;11.918;2023-09-18T12:37:28;28.00;97.70
43049;DHT22;28673;44.412;11.918;2023-09-18T12:39:54;28.00;97.80
43049;DHT22;28673;44.412;11.918;2023-09-18T12:42:20;28.00;97.90
43049;DHT22;28673;44.412;11.918;2023-09-18T12:44:49;28.10;97.90
43049;DHT22;28673;44.412;11.918;2023-09-18T12:47:15;28.10;97.80
43049;DHT22;28673;44.412;11.918;2023-09-18T12:49:40;28.20;97.60
43049;DHT22;28673;44.412;11.918;2023-09-18T12:52:06;28.20;97.30
43049;DHT22;28673;44.412;11.918;2023-09-18T12:54:39;28.30;96.80
43049;DHT22;28673;44.412;11.918;2023-09-18T12:57:05;28.30;96.30
43049;DHT22;28673;44.412;11.918;2023-09-18T12:59:32;28.30;96.50
43049;DHT22;28673;44.412;11.918;2023-09-18T13:02:05;28.30;96.00
43049;DHT22;28673;44.412;11.918;2023-09-18T13:04:36;28.30;95.80
43049;DHT22;28673;44.412;11.918;2023-09-18T13:09:30;28.40;95.40
43049;DHT22;28673;44.412;11.918;2023-09-18T13:11:56;28.30;94.90
43049;DHT22;28673;44.412;11.918;2023-09-18T13:14:22;28.20;94.80
43049;DHT22;28673;44.412;11.918;2023-09-18T13:16:48;28.20;95.20
43049;DHT22;28673;44.412;11.918;2023-09-18T13:21:58;28.10;95.20
43049;DHT22;28673;44.412;11.918;2023-09-18T13:24:25;28.10;95.40
43049;DHT22;28673;44.412;11.918;2023-09-18T13:26:52;28.10;95.00
43049;DHT22;28673;44.412;11.918;2023-09-18T13:29:18;28.00;95.40
43049;DHT22;28673;44.412;11.918;2023-09-18T13:31:43;28.00;95.80
43049;DHT22;28673;44.412;11.918;2023-09-18T13:34:09;27.90;95.70
43049;DHT22;28673;44.412;11.918;2023-09-18T13:36:35;27.90;95.80
43049;DHT22;28673;44.412;11.918;2023-09-18T13:39:03;27.90;95.90
43049;DHT22;28673;44.412;11.918;2023-09-18T13:41:29;27.80;96.20
43049;DHT22;28673;44.412;11.918;2023-09-18T13:43:54;27.70;96.30
43049;DHT22;28673;44.412;11.918;2023-09-18T13:46:21;27.70;96.50
43049;DHT22;28673;44.412;11.918;2023-09-18T13:48:47;27.70;96.40
43049;DHT22;28673;44.412;11.918;2023-09-18T13:51:13;27.70;96.70
43049;DHT22;28673;44.412;11.918;2023-09-18T13:53:39;27.70;96.80
43049;DHT22;28673;44.412;11.918;2023-09-18T13:56:06;27.70;97.00
43049;DHT22;28673;44.412;11.918;2023-09-18T13:58:32;27.70;97.20
43049;DHT22;28673;44.412;11.918;2023-09-18T14:00:59;27.70;97.30
43049;DHT22;28673;44.412;11.918;2023-09-18T14:03:24;27.70;97.50
43049;DHT22;28673;44.412;11.918;2023-09-18T14:05:50;27.70;97.50
43049;DHT22;28673;44.412;11.918;2023-09-18T14:08:16;27.70;97.40
43049;DHT22;28673;44.412;11.918;2023-09-18T14:10:43;27.80;97.30
43049;DHT22;28673;44.412;11.918;2023-09-18T14:13:09;27.80;97.20
43049;DHT22;28673;44.412;11.918;2023-09-18T14:15:35;27.90;97.20
43049;DHT22;28673;44.412;11.918;2023-09-18T14:18:00;27.90;96.90
43049;DHT22;28673;44.412;11.918;2023-09-18T14:20:26;27.90;97.00
43049;DHT22;28673;44.412;11.918;2023-09-18T14:22:52;27.90;97.00
43049;DHT22;28673;44.412;11.918;2023-09-18T14:25:18;27.90;97.00
43049;DHT22;28673;44.412;11.918;2023-09-18T14:27:45;27.90;97.00
43049;DHT22;28673;44.412;11.918;2023-09-18T14:30:11;27.90;97.00
43049;DHT22;28673;44.412;11.918;2023-09-18T14:32:39;27.90;96.80
43049;DHT22;28673;44.412;11.918;2023-09-18T14:35:05;27.90;96.70
43049;DHT22;28673;44.412;11.918;2023-09-18T14:37:33;27.90;96.80
43049;DHT22;28673;44.412;11.918;2023-09-18T14:39:59;27.90;96.80
43049;DHT22;28673;44.412;11.918;2023-09-18T14:42:25;27.90;96.60
43049;DHT22;28673;44.412;11.918;2023-09-18T14:44:51;27.90;96.60
43049;DHT22;28673;44.412;11.918;2023-09-18T14:47:17;27.90;96.40
43049;DHT22;28673;44.412;11.918;2023-09-18T14:49:43;27.90;96.20
43049;DHT22;28673;44.412;11.918;2023-09-18T14:52:15;27.90;96.20
43049;DHT22;28673;44.412;11.918;2023-09-18T14:54:42;28.00;96.30
43049;DHT22;28673;44.412;11.918;2023-09-18T14:57:26;28.00;96.00
43049;DHT22;28673;44.412;11.918;2023-09-18T15:00:11;28.00;96.10
43049;DHT22;28673;44.412;11.918;2023-09-18T15:02:38;28.00;96.20
43049;DHT22;28673;44.412;11.918;2023-09-18T15:05:03;28.00;96.10
43049;DHT22;28673;44.412;11.918;2023-09-18T15:07:34;28.00;95.90
43049;DHT22;28673;44.412;11.918;2023-09-18T15:10:00;28.00;96.40
43049;DHT22;28673;44.412;11.918;2023-09-18T15:12:25;27.90;95.90
43049;DHT22;28673;44.412;11.918;2023-09-18T15:14:52;27.90;95.90
43049;DHT22;28673;44.412;11.918;2023-09-18T15:17:18;27.90;96.00
43049;DHT22;28673;44.412;11.918;2023-09-18T15:19:44;27.90;95.90
43049;DHT22;28673;44.412;11.918;2023-09-18T15:22:14;27.90;95.80
43049;DHT22;28673;44.412;11.918;2023-09-18T15:24:39;27.90;95.90
43049;DHT22;28673;44.412;11.918;2023-09-18T15:27:05;27.90;95.50
43049;DHT22;28673;44.412;11.918;2023-09-18T15:29:31;27.90;95.50
43049;DHT22;28673;44.412;11.918;2023-09-18T15:31:56;28.00;95.70
43049;DHT22;28673;44.412;11.918;2023-09-18T15:34:23;27.90;95.10
43049;DHT22;28673;44.412;11.918;2023-09-18T15:36:49;27.90;94.40
43049;DHT22;28673;44.412;11.918;2023-09-18T15:39:15;27.90;94.10
43049;DHT22;28673;44.412;11.918;2023-09-18T15:41:40;28.00;93.20
43049;DHT22;28673;44.412;11.918;2023-09-18T15:44:25;27.90;93.10
43049;DHT22;28673;44.412;11.918;2023-09-18T15:46:51;28.00;91.80
43049;DHT22;28673;44.412;11.918;2023-09-18T15:49:16;28.00;92.80
43049;DHT22;28673;44.412;11.918;2023-09-18T15:51:43;28.10;92.50
43049;DHT22;28673;44.412;11.918;2023-09-18T15:54:09;28.10;91.90
43049;DHT22;28673;44.412;11.918;2023-09-18T15:56:35;28.10;92.00
43049;DHT22;28673;44.412;11.918;2023-09-18T15:59:01;28.20;91.20
43049;DHT22;28673;44.412;11.918;2023-09-18T16:01:28;28.30;91.30
43049;DHT22;28673;44.412;11.918;2023-09-18T16:03:53;28.30;89.90
43049;DHT22;28673;44.412;11.918;2023-09-18T16:06:22;28.40;90.50
43049;DHT22;28673;44.412;11.918;2023-09-18T16:09:25;28.40;89.20
43049;DHT22;28673;44.412;11.918;2023-09-18T16:11:54;28.50;90.60
43049;DHT22;28673;44.412;11.918;2023-09-18T16:14:19;28.60;89.70
43049;DHT22;28673;44.412;11.918;2023-09-18T16:19:52;28.60;87.60
43049;DHT22;28673;44.412;11.918;2023-09-18T16:22:19;28.60;89.50
43049;DHT22;28673;44.412;11.918;2023-09-18T16:24:45;28.60;89.50
43049;DHT22;28673;44.412;11.918;2023-09-18T16:27:11;28.60;87.70